createdAt,value
2023-10-06T00:00:07.816Z,20
2023-10-06T00:02:38.435Z,20
2023-10-06T00:05:09.575Z,16
2023-10-06T00:07:40.586Z,16
2023-10-06T00:10:11.443Z,20
2023-10-06T00:12:42.302Z,16
2023-10-06T00:15:12.814Z,16
2023-10-06T00:17:43.489Z,16
2023-10-06T00:20:14.169Z,16
2023-10-06T00:22:45.058Z,16
2023-10-06T00:25:16.163Z,16
2023-10-06T00:27:46.857Z,16
2023-10-06T00:30:17.516Z,20
2023-10-06T00:32:48.287Z,16
2023-10-06T00:35:18.952Z,16
2023-10-06T00:37:49.245Z,16
2023-10-06T00:40:20.110Z,16
2023-10-06T00:42:51.188Z,17
2023-10-06T00:45:22.415Z,16
2023-10-06T00:47:53.174Z,17
2023-10-06T00:50:22.623Z,16
2023-10-06T00:52:53.743Z,16
2023-10-06T00:55:24.324Z,15
2023-10-06T00:57:55.141Z,16
2023-10-06T01:00:25.837Z,16
2023-10-06T01:02:56.478Z,16
2023-10-06T01:05:27.365Z,16
2023-10-06T01:07:58.147Z,20
2023-10-06T01:10:29.300Z,16
2023-10-06T01:13:00.444Z,18
2023-10-06T01:15:31.515Z,18
2023-10-06T01:18:02.511Z,18
2023-10-06T01:20:33.724Z,16
2023-10-06T01:23:04.639Z,17
2023-10-06T01:25:35.234Z,19
2023-10-06T01:28:05.634Z,18
2023-10-06T01:30:36.298Z,20
2023-10-06T01:33:07.300Z,20
2023-10-06T01:35:38.220Z,16
2023-10-06T01:38:08.735Z,19
2023-10-06T01:40:39.203Z,20
2023-10-06T01:43:10.422Z,20
2023-10-06T01:45:40.853Z,20
2023-10-06T01:48:11.845Z,24
2023-10-06T01:50:42.299Z,23
2023-10-06T01:53:12.739Z,23
2023-10-06T01:55:43.413Z,20
2023-10-06T01:58:13.692Z,20
2023-10-06T02:00:44.346Z,19
2023-10-06T02:03:14.996Z,16
2023-10-06T02:05:45.572Z,20
2023-10-06T02:08:16.063Z,20
2023-10-06T02:10:46.756Z,16
2023-10-06T02:13:17.750Z,20
2023-10-06T02:15:48.653Z,20
2023-10-06T02:18:19.614Z,24
2023-10-06T02:20:51.048Z,21
2023-10-06T02:23:21.813Z,20
2023-10-06T02:25:53.168Z,20
2023-10-06T02:28:24.191Z,24
2023-10-06T02:30:58.675Z,20
2023-10-06T02:33:31.811Z,20
2023-10-06T02:36:00.431Z,20
2023-10-06T02:38:31.284Z,20
2023-10-06T02:41:01.747Z,24
2023-10-06T02:43:33.053Z,24
2023-10-06T02:46:07.905Z,24
2023-10-06T02:48:39.419Z,24
2023-10-06T02:51:10.763Z,20
2023-10-06T02:53:41.636Z,24
2023-10-06T02:56:12.760Z,24
2023-10-06T02:58:43.691Z,20
2023-10-06T03:01:14.308Z,20
2023-10-06T03:03:43.748Z,20
2023-10-06T03:06:14.617Z,21
2023-10-06T03:08:45.207Z,20
2023-10-06T03:11:17.571Z,20
2023-10-06T03:13:49.341Z,22
2023-10-06T03:16:20.219Z,20
2023-10-06T03:18:50.882Z,21
2023-10-06T03:21:22.526Z,24
2023-10-06T03:23:53.120Z,24
2023-10-06T03:26:24.232Z,24
2023-10-06T03:28:54.933Z,24
2023-10-06T03:31:23.876Z,24
2023-10-06T03:33:55.042Z,24
2023-10-06T03:36:25.654Z,24
2023-10-06T03:38:56.476Z,22
2023-10-06T03:41:26.919Z,20
2023-10-06T03:43:57.338Z,24
2023-10-06T03:46:28.261Z,28
2023-10-06T03:48:59.611Z,28
2023-10-06T03:51:30.504Z,28
2023-10-06T03:54:01.246Z,24
2023-10-06T03:56:32.819Z,24
2023-10-06T03:59:03.739Z,24
2023-10-06T04:01:34.359Z,24
2023-10-06T04:04:05.104Z,24
2023-10-06T04:06:37.270Z,28
2023-10-06T04:09:08.159Z,28
2023-10-06T04:11:38.572Z,24
2023-10-06T04:14:09.032Z,28
2023-10-06T04:16:40.239Z,28
2023-10-06T04:19:11.358Z,27
2023-10-06T04:21:41.742Z,28
2023-10-06T04:24:12.211Z,28
2023-10-06T04:26:43.375Z,24
2023-10-06T04:29:13.717Z,25
2023-10-06T04:31:44.391Z,26
2023-10-06T04:34:14.738Z,28
2023-10-06T04:36:45.378Z,32
2023-10-06T04:39:15.830Z,29
2023-10-06T04:41:46.205Z,28
2023-10-06T04:44:23.144Z,24
2023-10-06T04:46:53.611Z,24
2023-10-06T04:49:24.386Z,24
2023-10-06T04:51:55.664Z,24
2023-10-06T04:54:26.269Z,28
2023-10-06T04:56:57.063Z,28
2023-10-06T04:59:27.505Z,28
2023-10-06T05:01:58.370Z,28
2023-10-06T05:04:29.291Z,27
2023-10-06T05:07:05.812Z,24
2023-10-06T05:09:35.950Z,28
2023-10-06T05:12:06.105Z,28
2023-10-06T05:14:37.315Z,28
2023-10-06T05:17:07.597Z,28
2023-10-06T05:19:38.368Z,24
2023-10-06T05:22:09.852Z,25
2023-10-06T05:24:40.335Z,28
2023-10-06T05:27:11.089Z,24
2023-10-06T05:29:42.160Z,28
2023-10-06T05:32:13.161Z,27
2023-10-06T05:34:43.704Z,28
2023-10-06T05:37:14.572Z,28
2023-10-06T05:39:44.895Z,28
2023-10-06T05:42:15.456Z,26
2023-10-06T05:44:46.226Z,26
2023-10-06T05:47:16.627Z,28
2023-10-06T05:49:47.586Z,24
2023-10-06T05:52:18.805Z,28
2023-10-06T05:54:49.831Z,28
2023-10-06T05:57:20.869Z,28
2023-10-06T05:59:51.284Z,24
2023-10-06T06:02:21.984Z,24
2023-10-06T06:04:52.911Z,24
2023-10-06T06:07:23.932Z,24
2023-10-06T06:09:54.065Z,28
2023-10-06T06:12:24.686Z,24
2023-10-06T06:14:55.204Z,20
2023-10-06T06:17:26.274Z,27
2023-10-06T06:20:04.600Z,27
2023-10-06T06:22:27.798Z,24
2023-10-06T06:24:58.246Z,24
2023-10-06T06:27:29.105Z,20
2023-10-06T06:30:00.670Z,20
2023-10-06T06:32:31.416Z,23
2023-10-06T06:35:01.604Z,20
2023-10-06T06:37:32.438Z,20
2023-10-06T06:40:02.834Z,22
2023-10-06T06:42:33.083Z,20
2023-10-06T06:45:03.984Z,20
2023-10-06T06:47:34.597Z,20
2023-10-06T06:50:05.121Z,22
2023-10-06T06:52:36.162Z,28
2023-10-06T06:55:06.792Z,20
2023-10-06T06:57:37.352Z,24
2023-10-06T07:00:08.275Z,20
2023-10-06T07:02:38.973Z,20
2023-10-06T07:05:09.872Z,21
2023-10-06T07:07:40.501Z,20
2023-10-06T07:10:11.100Z,24
2023-10-06T07:12:41.516Z,24
2023-10-06T07:15:11.849Z,20
2023-10-06T07:17:42.465Z,21
2023-10-06T07:20:13.056Z,20
2023-10-06T07:22:43.566Z,20
2023-10-06T07:25:13.850Z,20
2023-10-06T07:27:44.272Z,20
2023-10-06T07:30:14.608Z,20
2023-10-06T07:32:45.316Z,20
2023-10-06T07:35:15.853Z,20
2023-10-06T07:37:46.825Z,20
2023-10-06T07:40:17.751Z,20
2023-10-06T07:42:48.370Z,20
2023-10-06T07:45:19.822Z,20
2023-10-06T07:47:50.124Z,20
2023-10-06T07:50:20.818Z,20
2023-10-06T07:52:51.357Z,20
2023-10-06T07:55:22.095Z,20
2023-10-06T07:57:53.274Z,20
2023-10-06T08:00:23.780Z,20
2023-10-06T08:02:54.795Z,19
2023-10-06T08:05:27.745Z,18
2023-10-06T08:07:56.756Z,18
2023-10-06T08:10:27.090Z,20
2023-10-06T08:12:58.027Z,20
2023-10-06T08:15:29.035Z,20
2023-10-06T08:18:00.203Z,20
2023-10-06T08:20:31.794Z,18
2023-10-06T08:23:02.308Z,17
2023-10-06T08:25:40.615Z,20
2023-10-06T08:28:03.882Z,16
2023-10-06T08:30:34.293Z,16
2023-10-06T08:33:04.850Z,16
2023-10-06T08:35:35.186Z,16
2023-10-06T08:38:05.738Z,15
2023-10-06T08:40:36.185Z,20
2023-10-06T08:43:06.544Z,16
2023-10-06T08:45:37.317Z,16
2023-10-06T08:48:08.226Z,19
2023-10-06T08:50:38.682Z,16
2023-10-06T08:53:09.853Z,16
2023-10-06T08:55:40.568Z,12
2023-10-06T08:58:10.758Z,16
2023-10-06T09:00:41.398Z,16
2023-10-06T09:03:11.847Z,16
2023-10-06T09:05:42.469Z,16
2023-10-06T09:08:13.556Z,13
2023-10-06T09:10:44.433Z,16
2023-10-06T09:13:15.244Z,15
2023-10-06T09:15:46.199Z,12
2023-10-06T09:18:17.119Z,15
2023-10-06T09:20:48.045Z,12
2023-10-06T09:23:18.771Z,12
2023-10-06T09:25:49.569Z,12
2023-10-06T09:28:19.858Z,15
2023-10-06T09:30:50.469Z,12
2023-10-06T09:33:21.262Z,12
2023-10-06T09:35:51.748Z,12
2023-10-06T09:38:22.832Z,12
2023-10-06T09:40:53.540Z,12
2023-10-06T09:43:24.219Z,12
2023-10-06T09:45:54.712Z,12
2023-10-06T09:48:25.184Z,12
2023-10-06T09:50:56.109Z,13
2023-10-06T09:53:26.579Z,10
2023-10-06T09:55:57.172Z,12
2023-10-06T09:58:27.652Z,13
2023-10-06T10:00:58.825Z,12
2023-10-06T10:03:29.706Z,11
2023-10-06T10:06:00.283Z,12
2023-10-06T10:08:31.201Z,15
2023-10-06T10:11:01.760Z,12
2023-10-06T10:13:33.006Z,12
2023-10-06T10:16:03.716Z,16
2023-10-06T10:18:34.815Z,12
2023-10-06T10:21:05.640Z,12
2023-10-06T10:23:36.437Z,8
2023-10-06T10:26:07.391Z,12
2023-10-06T10:28:38.469Z,12
2023-10-06T10:31:08.968Z,8
2023-10-06T10:33:40.118Z,8
2023-10-06T10:36:10.637Z,12
2023-10-06T10:38:41.595Z,8
2023-10-06T10:41:12.352Z,12
2023-10-06T10:43:43.231Z,8
2023-10-06T10:46:13.346Z,8
2023-10-06T10:48:44.156Z,8
2023-10-06T10:51:15.023Z,8
2023-10-06T10:53:45.379Z,8
2023-10-06T10:56:16.290Z,6
2023-10-06T10:58:47.169Z,8
2023-10-06T11:01:18.102Z,12
2023-10-06T11:03:48.499Z,8
2023-10-06T11:06:17.811Z,8
2023-10-06T11:08:48.269Z,12
2023-10-06T11:11:18.658Z,8
2023-10-06T11:13:54.812Z,5
2023-10-06T11:16:19.669Z,8
2023-10-06T11:18:50.685Z,12
2023-10-06T11:21:21.666Z,12
2023-10-06T11:23:53.281Z,12
2023-10-06T11:26:24.249Z,12
2023-10-06T11:28:55.002Z,12
2023-10-06T11:31:25.501Z,12
2023-10-06T11:33:56.122Z,16
2023-10-06T11:36:26.613Z,12
2023-10-06T11:38:57.069Z,12
2023-10-06T11:41:27.355Z,12
2023-10-06T11:43:57.853Z,10
2023-10-06T11:46:28.718Z,12
2023-10-06T11:48:59.477Z,10
2023-10-06T11:51:30.045Z,12
2023-10-06T11:54:00.473Z,8
2023-10-06T11:56:31.056Z,11
2023-10-06T11:59:01.287Z,11
2023-10-06T12:01:31.906Z,12
2023-10-06T12:04:02.572Z,13
2023-10-06T12:06:32.796Z,12
2023-10-06T12:09:06.758Z,16
2023-10-06T12:11:37.596Z,16
2023-10-06T12:14:08.928Z,16
2023-10-06T12:16:39.804Z,16
2023-10-06T12:19:10.713Z,16
2023-10-06T12:21:41.881Z,16
2023-10-06T12:24:12.488Z,16
2023-10-06T12:26:43.387Z,16
2023-10-06T12:29:13.575Z,16
2023-10-06T12:31:43.826Z,16
2023-10-06T12:34:14.459Z,20
2023-10-06T12:36:45.029Z,20
2023-10-06T12:39:16.280Z,20
2023-10-06T12:41:50.084Z,20
2023-10-06T12:44:20.534Z,21
2023-10-06T12:46:51.305Z,20
2023-10-06T12:49:21.572Z,20
2023-10-06T12:51:52.731Z,20
2023-10-06T12:54:23.908Z,18
2023-10-06T12:56:54.985Z,16
2023-10-06T12:59:25.592Z,20
2023-10-06T13:01:56.262Z,20
2023-10-06T13:04:26.513Z,20
2023-10-06T13:06:57.083Z,16
2023-10-06T13:09:27.498Z,20
2023-10-06T13:11:56.503Z,18
2023-10-06T13:14:26.800Z,19
2023-10-06T13:16:57.833Z,20
2023-10-06T13:19:26.762Z,18
2023-10-06T13:21:57.072Z,20
2023-10-06T13:24:27.969Z,18
2023-10-06T13:26:59.275Z,16
2023-10-06T13:29:30.264Z,20
2023-10-06T13:32:00.868Z,12
2023-10-06T13:34:31.116Z,12
2023-10-06T13:37:01.745Z,16
2023-10-06T13:39:32.206Z,16
2023-10-06T13:42:04.178Z,8
2023-10-06T13:44:33.585Z,15
2023-10-06T13:47:04.533Z,12
2023-10-06T13:49:35.135Z,12
2023-10-06T13:52:06.023Z,8
2023-10-06T13:54:36.447Z,12
2023-10-06T13:57:07.205Z,8
2023-10-06T13:59:37.372Z,12
2023-10-06T14:02:08.136Z,8
2023-10-06T14:04:38.456Z,8
2023-10-06T14:07:12.912Z,8
2023-10-06T14:09:43.690Z,4
2023-10-06T14:12:14.651Z,8
2023-10-06T14:14:45.298Z,8
2023-10-06T14:17:16.669Z,8
2023-10-06T14:19:47.123Z,5
2023-10-06T14:22:18.265Z,4
2023-10-06T14:24:49.208Z,4
2023-10-06T14:27:20.269Z,4
2023-10-06T14:29:51.063Z,8
2023-10-06T14:32:21.749Z,4
2023-10-06T14:34:50.516Z,8
2023-10-06T14:37:20.230Z,13
2023-10-06T14:39:51.214Z,4
2023-10-06T14:42:21.517Z,4
2023-10-06T14:44:52.315Z,4
2023-10-06T14:47:22.982Z,16
2023-10-06T14:49:53.826Z,12
2023-10-06T14:52:24.644Z,4
2023-10-06T14:54:55.200Z,4
2023-10-06T14:57:26.241Z,8
2023-10-06T14:59:56.788Z,6
2023-10-06T15:02:27.462Z,6
2023-10-06T15:04:59.145Z,8
2023-10-06T15:07:35.748Z,6
2023-10-06T15:10:05.983Z,8
2023-10-06T15:12:36.307Z,8
2023-10-06T15:15:06.772Z,8
2023-10-06T15:17:37.588Z,8
2023-10-06T15:20:08.580Z,8
2023-10-06T15:22:38.855Z,8
2023-10-06T15:25:09.644Z,10
2023-10-06T15:27:40.048Z,12
2023-10-06T15:30:11.176Z,12
2023-10-06T15:32:41.382Z,8
2023-10-06T15:35:11.648Z,11
2023-10-06T15:37:42.374Z,12
2023-10-06T15:40:12.639Z,12
2023-10-06T15:42:43.157Z,12
2023-10-06T15:45:14.473Z,12
2023-10-06T15:47:43.177Z,12
2023-10-06T15:50:22.154Z,12
2023-10-06T15:52:44.689Z,12
2023-10-06T15:55:18.651Z,8
2023-10-06T15:57:49.628Z,8
2023-10-06T16:00:18.562Z,8
2023-10-06T16:02:54.688Z,8
2023-10-06T16:05:25.481Z,10
2023-10-06T16:07:56.162Z,8
2023-10-06T16:10:26.587Z,8
2023-10-06T16:12:56.972Z,10
2023-10-06T16:15:27.570Z,8
2023-10-06T16:17:57.854Z,8
2023-10-06T16:20:28.809Z,8
2023-10-06T16:22:59.846Z,6
2023-10-06T16:25:30.406Z,8
2023-10-06T16:28:02.651Z,8
2023-10-06T16:30:32.207Z,4
2023-10-06T16:33:02.522Z,8
2023-10-06T16:35:32.715Z,5
2023-10-06T16:38:03.241Z,12
2023-10-06T16:40:34.070Z,12
2023-10-06T16:43:02.870Z,8
2023-10-06T16:45:33.601Z,4
2023-10-06T16:48:04.119Z,8
2023-10-06T16:50:34.195Z,8
2023-10-06T16:53:05.122Z,8
2023-10-06T16:55:35.903Z,18
2023-10-06T16:58:06.715Z,20
2023-10-06T17:00:37.123Z,28
2023-10-06T17:03:08.182Z,40
2023-10-06T17:05:38.228Z,30
2023-10-06T17:08:08.621Z,28
2023-10-06T17:10:38.671Z,32
2023-10-06T17:13:09.224Z,32
2023-10-06T17:15:39.464Z,26
2023-10-06T17:18:10.003Z,28
2023-10-06T17:20:40.724Z,34
2023-10-06T17:23:11.496Z,28
2023-10-06T17:25:42.250Z,24
2023-10-06T17:28:13.180Z,36
2023-10-06T17:30:44.178Z,25
2023-10-06T17:33:14.650Z,32
2023-10-06T17:35:45.059Z,32
2023-10-06T17:38:15.926Z,24
2023-10-06T17:40:46.063Z,32
2023-10-06T17:43:16.148Z,28
2023-10-06T17:45:46.348Z,32
2023-10-06T17:48:17.306Z,24
2023-10-06T17:50:47.453Z,24
2023-10-06T17:53:18.193Z,28
2023-10-06T17:55:48.915Z,28
2023-10-06T17:58:19.310Z,28
2023-10-06T18:00:50.226Z,27
2023-10-06T18:03:21.036Z,24
2023-10-06T18:05:51.119Z,24
2023-10-06T18:08:21.239Z,24
2023-10-06T18:10:51.409Z,24
2023-10-06T18:13:21.612Z,28
2023-10-06T18:15:51.949Z,28
2023-10-06T18:18:22.213Z,28
2023-10-06T18:20:52.832Z,32
2023-10-06T18:23:23.715Z,28
2023-10-06T18:25:55.775Z,28
2023-10-06T18:28:26.446Z,30
2023-10-06T18:31:03.506Z,31
2023-10-06T18:33:34.645Z,30
2023-10-06T18:36:04.765Z,30
2023-10-06T18:38:35.119Z,28
2023-10-06T18:41:05.238Z,24
2023-10-06T18:43:35.727Z,20
2023-10-06T18:46:06.167Z,24
2023-10-06T18:48:36.437Z,21
2023-10-06T18:51:06.804Z,24
2023-10-06T18:53:36.934Z,20
2023-10-06T18:56:07.244Z,23
2023-10-06T18:58:37.684Z,24
2023-10-06T19:01:08.858Z,20
2023-10-06T19:03:39.196Z,28
2023-10-06T19:06:09.004Z,24
2023-10-06T19:08:39.079Z,28
2023-10-06T19:11:09.374Z,24
2023-10-06T19:13:39.758Z,24
2023-10-06T19:16:10.072Z,27
2023-10-06T19:18:40.462Z,24
2023-10-06T19:21:10.586Z,26
2023-10-06T19:23:40.954Z,24
2023-10-06T19:26:11.116Z,28
2023-10-06T19:28:40.922Z,24
2023-10-06T19:31:11.070Z,24
2023-10-06T19:33:41.597Z,24
2023-10-06T19:36:10.498Z,24
2023-10-06T19:38:40.869Z,22
2023-10-06T19:41:11.373Z,28
2023-10-06T19:43:43.739Z,24
2023-10-06T19:46:15.115Z,25
2023-10-06T19:48:45.306Z,24
2023-10-06T19:51:15.678Z,21
2023-10-06T19:53:46.176Z,24
2023-10-06T19:56:16.799Z,24
2023-10-06T19:58:47.032Z,23
2023-10-06T20:01:17.480Z,24
2023-10-06T20:03:48.232Z,24
2023-10-06T20:06:18.565Z,24
2023-10-06T20:08:48.693Z,24
2023-10-06T20:11:19.244Z,24
2023-10-06T20:13:49.527Z,24
2023-10-06T20:16:19.644Z,21
2023-10-06T20:18:49.725Z,23
2023-10-06T20:21:18.145Z,22
2023-10-06T20:23:48.102Z,22
2023-10-06T20:26:18.581Z,20
2023-10-06T20:28:48.962Z,24
2023-10-06T20:31:18.941Z,24
2023-10-06T20:33:49.022Z,20
2023-10-06T20:36:19.194Z,20
2023-10-06T20:38:50.153Z,24
2023-10-06T20:41:20.125Z,24
2023-10-06T20:43:50.331Z,28
2023-10-06T20:46:19.244Z,28
2023-10-06T20:48:49.860Z,32
2023-10-06T20:51:19.788Z,24
2023-10-06T20:53:49.771Z,24
2023-10-06T20:56:20.077Z,28
2023-10-06T20:58:50.350Z,24
2023-10-06T21:01:20.552Z,24
2023-10-06T21:03:51.220Z,24
2023-10-06T21:06:21.431Z,20
2023-10-06T21:08:52.076Z,24
2023-10-06T21:11:26.794Z,24
2023-10-06T21:13:57.264Z,29
2023-10-06T21:16:27.411Z,28
2023-10-06T21:18:57.334Z,28
2023-10-06T21:21:27.601Z,25
2023-10-06T21:23:57.765Z,23
2023-10-06T21:26:28.458Z,24
2023-10-06T21:28:58.581Z,24
2023-10-06T21:31:28.608Z,24
2023-10-06T21:33:57.591Z,28
2023-10-06T21:36:28.235Z,24
2023-10-06T21:38:58.612Z,23
2023-10-06T21:41:28.909Z,25
2023-10-06T21:43:58.983Z,24
2023-10-06T21:46:29.159Z,23
2023-10-06T21:48:59.249Z,20
2023-10-06T21:51:29.473Z,20
2023-10-06T21:53:59.716Z,20
2023-10-06T21:56:29.971Z,20
2023-10-06T21:59:00.696Z,24
2023-10-06T22:01:30.909Z,20
2023-10-06T22:04:01.715Z,20
2023-10-06T22:06:32.240Z,20
2023-10-06T22:09:02.260Z,20
2023-10-06T22:11:33.472Z,20
2023-10-06T22:14:05.124Z,20
2023-10-06T22:16:35.329Z,17
2023-10-06T22:19:05.816Z,16
2023-10-06T22:21:36.386Z,20
2023-10-06T22:24:09.816Z,18
2023-10-06T22:26:40.076Z,16
2023-10-06T22:29:10.466Z,16
2023-10-06T22:31:40.502Z,20
2023-10-06T22:34:10.870Z,16
2023-10-06T22:36:41.046Z,20
2023-10-06T22:39:11.393Z,20
2023-10-06T22:41:41.774Z,24
2023-10-06T22:44:12.092Z,23
2023-10-06T22:46:42.854Z,20
2023-10-06T22:49:13.199Z,20
2023-10-06T22:51:43.972Z,24
2023-10-06T22:54:14.523Z,24
2023-10-06T22:56:44.856Z,23
2023-10-06T22:59:15.157Z,24
2023-10-06T23:01:45.793Z,20
2023-10-06T23:04:16.460Z,20
2023-10-06T23:06:46.327Z,24
2023-10-06T23:09:16.683Z,24
2023-10-06T23:11:47.057Z,28
2023-10-06T23:14:17.611Z,25
2023-10-06T23:16:48.271Z,28
2023-10-06T23:19:19.589Z,22
2023-10-06T23:21:50.204Z,24
2023-10-06T23:24:20.679Z,24
2023-10-06T23:26:51.345Z,20
2023-10-06T23:29:21.577Z,20
2023-10-06T23:31:52.292Z,20
2023-10-06T23:34:22.834Z,24
2023-10-06T23:36:53.471Z,20
2023-10-06T23:39:22.689Z,20
2023-10-06T23:41:52.841Z,19
2023-10-06T23:44:23.831Z,19
2023-10-06T23:46:54.480Z,20
2023-10-06T23:49:24.402Z,24
2023-10-06T23:51:53.526Z,24
2023-10-06T23:54:24.186Z,20
2023-10-06T23:56:58.244Z,24
2023-10-06T23:59:28.715Z,20
